^^
Datos históricos de la estación: Murcia-Puente Tocinos
Diario Informe para Octubre 19, 2021 Unidades:  Métrico    Ingés   Ambas
Diario Semanal Mensual Anual
  Máxima: Mínima: Promedio:
Temperatura: 24.4 °C 16.7 °C 20.1 °C
Punto de rocio: 17.4 °C 13.5 °C 15.4 °C
Humedad: 90.9% 52% 76%
Velocidad viento: 16.4km/h 0km/h 6km/h
Racha viento: 30.6km/h - -
Viento- - ESE
Presión: 1026.5 hPa 1023.6 hPa -
Precipitación: 0.0 mm    
 
 
Tabla de datos para Octubre 19, 2021
Hora Temperatura Punto de rocio Presión Viento Velocidad viento Racha viento Humedad Intensidad lluvia(por hora) Nubes
00:04 19.2 °C 16.6 °C 1024.5 hPa NNO 2.9 km/h 3.7 km/h 85% 0.0 mm
00:09 19.2 °C 16.6 °C 1024.5 hPa NNO 1.6 km/h 4.7 km/h 85% 0.0 mm
00:14 19.2 °C 16.6 °C 1024.5 hPa Calm   7.4 km/h 85% 0.0 mm
00:19 19.2 °C 16.6 °C 1024.5 hPa NO 1.3 km/h 5.6 km/h 85% 0.0 mm
00:24 19.1 °C 16.5 °C 1024.6 hPa NO 3.2 km/h 5.8 km/h 85% 0.0 mm
00:29 19.1 °C 16.6 °C 1024.6 hPa NNE 3.2 km/h 7.4 km/h 85.5% 0.0 mm
00:34 19.1 °C 16.7 °C 1024.6 hPa ENE 3.2 km/h 5.6 km/h 86% 0.0 mm
00:39 18.9 °C 16.5 °C 1024.6 hPa Este 3.5 km/h 5.8 km/h 85.5% 0.0 mm
00:44 18.9 °C 16.5 °C 1024.5 hPa Este 3.9 km/h 5.6 km/h 86% 0.0 mm
00:49 18.8 °C 16.4 °C 1024.5 hPa Este 3.9 km/h 7.4 km/h 85.9% 0.0 mm
00:54 18.7 °C 16.2 °C 1024.5 hPa Este 3.9 km/h 4.7 km/h 85.3% 0.0 mm
00:59 18.6 °C 16.1 °C 1024.5 hPa Este 3.1 km/h 4.7 km/h 85.2% 0.0 mm
01:04 18.5 °C 16.1 °C 1024.5 hPa Este 2.3 km/h   86% 0.0 mm
01:09 18.5 °C 16.1 °C 1024.5 hPa Este 1.3 km/h   86% 0.0 mm
01:14 18.4 °C 16 °C 1024.5 hPa Calm     86% 0.0 mm
01:19 18.4 °C 16 °C 1024.5 hPa Calm   4.7 km/h 86% 0.0 mm
01:24 18.4 °C 16 °C 1024.5 hPa Calm   3.9 km/h 86% 0.0 mm
01:29 18.3 °C 15.9 °C 1024.5 hPa Este 1.2 km/h 5.6 km/h 86% 0.0 mm
01:34 18.3 °C 15.9 °C 1024.5 hPa ENE 2.9 km/h 5.8 km/h 86.1% 0.0 mm
01:39 18.2 °C 16 °C 1024.5 hPa North 3 km/h 5.6 km/h 87% 0.0 mm
01:44 18.1 °C 15.9 °C 1024.4 hPa North 3.2 km/h 3.7 km/h 87% 0.0 mm
01:49 18.1 °C 15.9 °C 1024.4 hPa North 1.9 km/h 4.7 km/h 87% 0.0 mm
01:54 18.1 °C 15.9 °C 1024.5 hPa Calm   7.4 km/h 87% 0.0 mm
01:59 18.1 °C 15.9 °C 1024.5 hPa ESE 1.7 km/h 7.6 km/h 87% 0.0 mm
02:04 18 °C 15.8 °C 1024.5 hPa ESE 3.9 km/h 7.4 km/h 87% 0.0 mm
02:09 18 °C 15.7 °C 1024.5 hPa ESE 4.2 km/h 7.4 km/h 86.7% 0.0 mm
02:14 17.9 °C 15.5 °C 1024.5 hPa SE 4.7 km/h 7.4 km/h 86% 0.0 mm
02:19 17.9 °C 15.7 °C 1024.5 hPa SE 4.1 km/h 4.7 km/h 86.8% 0.0 mm
02:24 17.8 °C 15.6 °C 1024.6 hPa SE 3.2 km/h   87% 0.0 mm
02:29 17.8 °C 15.6 °C 1024.6 hPa SE 1.9 km/h 4.7 km/h 87% 0.0 mm
02:34 17.9 °C 15.7 °C 1024.6 hPa Calm   4.7 km/h 87% 0.0 mm
02:39 17.9 °C 15.7 °C 1024.6 hPa SE 1 km/h 5.6 km/h 87% 0.0 mm
02:44 17.9 °C 15.7 °C 1024.5 hPa SE 2.3 km/h 5.6 km/h 87% 0.0 mm
02:49 17.9 °C 15.7 °C 1024.5 hPa SE 2.3 km/h   87% 0.0 mm
02:54 17.9 °C 15.7 °C 1024.6 hPa SE 2.3 km/h 3.9 km/h 87% 0.0 mm
02:59 17.9 °C 15.7 °C 1024.6 hPa SE 1.3 km/h 4.7 km/h 87% 0.0 mm
03:04 17.9 °C 15.7 °C 1024.6 hPa Calm   2.3 km/h 87% 0.0 mm
03:09 17.9 °C 15.7 °C 1024.6 hPa Calm   5.8 km/h 87% 0.0 mm
03:14 17.9 °C 15.7 °C 1024.5 hPa Calm   5.6 km/h 87% 0.0 mm
03:19 17.9 °C 15.7 °C 1024.5 hPa SE 1.3 km/h 1.9 km/h 87% 0.0 mm
03:24 17.9 °C 15.7 °C 1024.6 hPa SE 2.9 km/h 5 km/h 87% 0.0 mm
03:29 18 °C 15.8 °C 1024.6 hPa SE 2.6 km/h 5.8 km/h 87% 0.0 mm
03:34 18 °C 15.8 °C 1024.6 hPa SE 2.3 km/h 3.9 km/h 87% 0.0 mm
03:39 17.9 °C 15.8 °C 1024.6 hPa SE 2.3 km/h 2.3 km/h 87% 0.0 mm
03:44 17.9 °C 15.7 °C 1024.6 hPa SE 2.3 km/h 3.7 km/h 87% 0.0 mm
03:49 17.9 °C 15.7 °C 1024.6 hPa SE 1.3 km/h 4.7 km/h 87% 0.0 mm
03:54 17.9 °C 15.7 °C 1024.6 hPa Calm   3.7 km/h 87% 0.0 mm
03:59 17.9 °C 15.7 °C 1024.6 hPa SE 1 km/h 5.8 km/h 87% 0.0 mm
04:04 17.9 °C 15.7 °C 1024.6 hPa SE 2.3 km/h 5.8 km/h 87% 0.0 mm
04:09 17.9 °C 15.7 °C 1024.6 hPa SE 2.9 km/h 7.6 km/h 87% 0.0 mm
04:14 17.8 °C 15.6 °C 1024.5 hPa SSE 3.9 km/h 7.4 km/h 87% 0.0 mm
04:19 17.8 °C 15.6 °C 1024.5 hPa Sur 4.3 km/h 7.4 km/h 87% 0.0 mm
04:24 17.8 °C 15.7 °C 1024.5 hPa SSO 5 km/h 7.4 km/h 87.8% 0.0 mm
04:29 17.8 °C 15.8 °C 1024.5 hPa SSO 4.5 km/h 9.3 km/h 88% 0.0 mm
04:34 17.8 °C 15.8 °C 1024.5 hPa SSO 3.9 km/h 9.3 km/h 88% 0.0 mm
04:39 17.8 °C 15.8 °C 1024.5 hPa SSO 4.2 km/h 5.6 km/h 88% 0.0 mm
04:44 17.8 °C 15.8 °C 1024.5 hPa SO 4.7 km/h 5.8 km/h 88% 0.0 mm
04:49 17.8 °C 15.8 °C 1024.5 hPa SO 4.1 km/h 5.6 km/h 88% 0.0 mm
04:54 17.7 °C 15.7 °C 1024.5 hPa SO 3.2 km/h 3.9 km/h 88% 0.0 mm
04:59 17.7 °C 15.7 °C 1024.5 hPa SO 2.8 km/h 5.6 km/h 88% 0.0 mm
05:04 17.7 °C 15.7 °C 1024.5 hPa SO 2.3 km/h 4.7 km/h 88% 0.0 mm
05:09 17.7 °C 15.7 °C 1024.5 hPa SSO 2.6 km/h 5.6 km/h 88% 0.0 mm
05:14 17.7 °C 15.7 °C 1024.4 hPa SSE 3.2 km/h 7.6 km/h 88% 0.0 mm
05:19 17.7 °C 15.6 °C 1024.4 hPa SSE 3.8 km/h 7.6 km/h 88% 0.0 mm
05:24 17.6 °C 15.6 °C 1024.4 hPa Sur 4.7 km/h 7.6 km/h 88% 0.0 mm
05:29 17.6 °C 15.6 °C 1024.3 hPa SE 4.8 km/h 8.4 km/h 88% 0.0 mm
05:34 17.6 °C 15.6 °C 1024.3 hPa SE 5 km/h 7.6 km/h 88% 0.0 mm
05:39 17.4 °C 15.4 °C 1024.3 hPa SE 4.9 km/h 7.4 km/h 88% 0.0 mm
05:44 17.3 °C 15.3 °C 1024.3 hPa SE 4.7 km/h 9.3 km/h 88% 0.0 mm
05:49 17.2 °C 15.2 °C 1024.3 hPa SE 4.7 km/h 6.4 km/h 88% 0.0 mm
05:54 17.2 °C 15.1 °C 1024.4 hPa ESE 4.7 km/h 5.8 km/h 88% 0.0 mm
05:59 17.1 °C 15.2 °C 1024.4 hPa SSE 4.3 km/h 5.8 km/h 88.7% 0.0 mm
06:04 17.1 °C 15.3 °C 1024.4 hPa Sur 3.9 km/h 5.8 km/h 89% 0.0 mm
06:09 17.2 °C 15.3 °C 1024.4 hPa Sur 3.6 km/h 5.8 km/h 89% 0.0 mm
06:14 17.2 °C 15.4 °C 1024.3 hPa Sur 3.2 km/h 5.6 km/h 89% 0.0 mm
06:19 17.2 °C 15.4 °C 1024.3 hPa Sur 3.1 km/h 3.9 km/h 89% 0.0 mm
06:24 17.2 °C 15.4 °C 1024.4 hPa Sur 2.9 km/h 3.7 km/h 89% 0.0 mm
06:29 17.2 °C 15.4 °C 1024.4 hPa Sur 1.7 km/h 2.3 km/h 89% 0.0 mm
06:34 17.2 °C 15.3 °C 1024.4 hPa Calm   3.9 km/h 89% 0.0 mm
06:39 17.1 °C 15.2 °C 1024.6 hPa Sur 0.9 km/h 5.6 km/h 89% 0.0 mm
06:44 16.9 °C 15.1 °C 1024.6 hPa Sur 2.3 km/h 5.6 km/h 89% 0.0 mm
06:49 16.8 °C 15 °C 1024.6 hPa Sur 2.5 km/h 3.9 km/h 89% 0.0 mm
06:54 16.8 °C 15 °C 1024.6 hPa Sur 2.9 km/h 3.9 km/h 89.1% 0.0 mm
06:59 16.7 °C 15.1 °C 1024.6 hPa Sur 2.6 km/h 3.7 km/h 90% 0.0 mm
07:04 16.7 °C 15.1 °C 1024.6 hPa Sur 2.3 km/h 3.9 km/h 90% 0.0 mm
07:09 16.7 °C 15.1 °C 1024.7 hPa Sur 1.3 km/h 3.7 km/h 90% 0.0 mm
07:14 16.7 °C 15.1 °C 1024.7 hPa Calm     90% 0.0 mm
07:19 16.7 °C 15.1 °C 1024.7 hPa Calm   3.7 km/h 90% 0.0 mm
07:24 16.7 °C 15.2 °C 1024.7 hPa Calm     90.9% 0.0 mm
07:29 16.8 °C 15.2 °C 1024.7 hPa Calm   4.7 km/h 90.1% 0.0 mm
07:34 16.7 °C 15.1 °C 1024.7 hPa Calm   4.7 km/h 90% 0.0 mm
07:39 16.7 °C 15.1 °C 1024.8 hPa Sur 1 km/h 5.8 km/h 90% 0.0 mm
07:44 16.7 °C 15.1 °C 1024.8 hPa Sur 2.3 km/h 5.6 km/h 90% 0.0 mm
07:49 16.7 °C 15 °C 1024.8 hPa Sur 2.3 km/h 3.7 km/h 90% 0.0 mm
07:54 16.7 °C 15.1 °C 1024.9 hPa Sur 2.3 km/h 5.8 km/h 90% 0.0 mm
07:59 16.7 °C 15.1 °C 1024.9 hPa Sur 2.7 km/h 5.8 km/h 90.4% 0.0 mm
08:04 16.8 °C 15.2 °C 1024.9 hPa Sur 3.2 km/h 4.7 km/h 90.2% 0.0 mm
08:09 16.8 °C 15.2 °C 1025.0 hPa Sur 1.9 km/h 3.9 km/h 90.4% 0.0 mm
08:14 16.8 °C 15.2 °C 1025.0 hPa Calm   3.9 km/h 90% 0.0 mm
08:19 16.8 °C 15.2 °C 1025.0 hPa Calm   2.9 km/h 90% 0.0 mm
08:24 16.8 °C 15.1 °C 1025.0 hPa Calm   3.7 km/h 90% 0.0 mm
08:29 16.7 °C 15.1 °C 1025.0 hPa SE 1 km/h 7.4 km/h 90% 0.0 mm
08:34 16.7 °C 15.1 °C 1025.0 hPa ESE 2.3 km/h 7.4 km/h 90% 0.0 mm
08:39 16.8 °C 15.1 °C 1025.1 hPa ESE 2.9 km/h 5.8 km/h 90% 0.0 mm
08:44 16.7 °C 15.1 °C 1025.1 hPa ESE 3.9 km/h 5.8 km/h 90% 0.0 mm
08:49 16.8 °C 15 °C 1025.1 hPa SE 3.6 km/h 7.4 km/h 89.5% 0.0 mm
08:54 16.8 °C 15 °C 1025.2 hPa SSE 3.2 km/h 7.6 km/h 89.3% 0.0 mm
08:59 16.8 °C 15 °C 1025.2 hPa Sur 3.9 km/h 6.4 km/h 89.2% 0.0 mm
09:04 16.9 °C 15.2 °C 1025.2 hPa Sur 4.7 km/h 7.4 km/h 90% 0.0 mm
09:09 17.1 °C 15.4 °C 1025.3 hPa Sur 4.1 km/h 5.8 km/h 90% 0.0 mm
09:14 17.2 °C 15.5 °C 1025.3 hPa SSO 3.2 km/h 7.4 km/h 89.5% 0.0 mm
09:19 17.3 °C 15.5 °C 1025.3 hPa SO 3.1 km/h 3.7 km/h 89% 0.0 mm
09:24 17.4 °C 15.5 °C 1025.5 hPa SO 2.9 km/h 4.7 km/h 88.7% 0.0 mm
09:29 17.5 °C 15.5 °C 1025.5 hPa SO 2.6 km/h 4.7 km/h 88% 0.0 mm
09:34 17.6 °C 15.6 °C 1025.5 hPa SO 2.3 km/h 5.6 km/h 88% 0.0 mm
09:39 17.7 °C 15.7 °C 1025.7 hPa SO 2.3 km/h 5.6 km/h 88% 0.0 mm
09:44 17.9 °C 15.9 °C 1025.7 hPa Sur 2.3 km/h 7.6 km/h 88% 0.0 mm
09:49 18.2 °C 16 °C 1025.7 hPa SSE 2.6 km/h 8.4 km/h 87.2% 0.0 mm
09:54 18.3 °C 15.9 °C 1025.9 hPa Sur 3.2 km/h 9.3 km/h 85.9% 0.0 mm
09:59 18.4 °C 15.9 °C 1025.9 hPa Sur 4.4 km/h 9.5 km/h 85% 0.0 mm
10:04 18.6 °C 16 °C 1025.9 hPa Sur 5.8 km/h 7.6 km/h 85% 0.0 mm
10:09 18.7 °C 16.1 °C 1026.1 hPa Sur 6.1 km/h 10 km/h 84.9% 0.0 mm
10:14 18.8 °C 16.1 °C 1026.1 hPa SSE 6.4 km/h 10.3 km/h 84.4% 0.0 mm
10:19 19 °C 16.2 °C 1026.1 hPa SSE 6.4 km/h 11.1 km/h 84% 0.0 mm
10:24 19.1 °C 16.2 °C 1026.2 hPa Sur 6.4 km/h 8.4 km/h 83.2% 0.0 mm
10:29 19.2 °C 16.3 °C 1026.2 hPa Sur 5.8 km/h 7.6 km/h 83% 0.0 mm
10:34 19.4 °C 16.4 °C 1026.2 hPa OSO 5 km/h 8.7 km/h 82.9% 0.0 mm
10:39 19.6 °C 16.4 °C 1026.3 hPa OSO 4.8 km/h 9.5 km/h 82% 0.0 mm
10:44 19.7 °C 16.5 °C 1026.3 hPa OSO 4.7 km/h 7.4 km/h 82% 0.0 mm
10:49 19.8 °C 16.5 °C 1026.3 hPa SSO 4.1 km/h 7.4 km/h 81.4% 0.0 mm
10:54 20 °C 16.8 °C 1026.5 hPa Oeste 3.2 km/h 5.6 km/h 81.5% 0.0 mm
10:59 20.3 °C 16.8 °C 1026.5 hPa OSO 3.1 km/h 7.4 km/h 80.1% 0.0 mm
11:04 20.5 °C 16.8 °C 1026.5 hPa Oeste 2.9 km/h 4.7 km/h 79.3% 0.0 mm
11:09 20.7 °C 16.8 °C 1026.5 hPa OSO 3 km/h 7.4 km/h 78.6% 0.0 mm
11:14 20.9 °C 17.1 °C 1026.4 hPa NO 3.2 km/h 5.8 km/h 78.9% 0.0 mm
11:19 21.1 °C 17 °C 1026.4 hPa OSO 3.2 km/h 7.4 km/h 77.3% 0.0 mm
11:24 21.2 °C 17 °C 1026.4 hPa OSO 3.2 km/h 4.7 km/h 77% 0.0 mm
11:29 21.3 °C 17.1 °C 1026.4 hPa Oeste 2.8 km/h 9.3 km/h 77% 0.0 mm
11:34 21.5 °C 17.1 °C 1026.4 hPa North 2.3 km/h 11.9 km/h 76.1% 0.0 mm
11:39 21.7 °C 17.2 °C 1026.5 hPa NNE 3.3 km/h 13 km/h 75.9% 0.0 mm
11:44 21.7 °C 17.1 °C 1026.5 hPa NNE 5 km/h 11.1 km/h 75.3% 0.0 mm
11:49 21.7 °C 17.1 °C 1026.5 hPa North 5.6 km/h 11.1 km/h 75% 0.0 mm
11:54 21.8 °C 17.1 °C 1026.5 hPa NNE 6.4 km/h 11.1 km/h 75% 0.0 mm
11:59 22 °C 17.4 °C 1026.4 hPa NNE 5.3 km/h 7.4 km/h 75% 0.0 mm
12:04 22.3 °C 17.3 °C 1026.4 hPa NE 3.9 km/h 11.1 km/h 73.4% 0.0 mm
12:09 22.3 °C 17.1 °C 1026.4 hPa ENE 4.7 km/h 11.1 km/h 72.2% 0.0 mm
12:14 22.4 °C 17.2 °C 1026.3 hPa NE 5.8 km/h 14.8 km/h 72.5% 0.0 mm
12:19 22.3 °C 16.9 °C 1026.3 hPa NE 6.3 km/h 11.1 km/h 71.5% 0.0 mm
12:24 22.2 °C 16.9 °C 1026.3 hPa NNE 6.9 km/h 14 km/h 71.8% 0.0 mm
12:29 22 °C 16.6 °C 1026.2 hPa NE 7.7 km/h 18.5 km/h 71.5% 0.0 mm
12:34 22 °C 16.5 °C 1026.2 hPa NE 8.7 km/h 18.5 km/h 71% 0.0 mm
12:39 22.2 °C 16.6 °C 1026.2 hPa ENE 9 km/h 13 km/h 70.7% 0.0 mm
12:44 22.4 °C 16.2 °C 1026.1 hPa NE 9.5 km/h 14.8 km/h 67.8% 0.0 mm
12:49 22.6 °C 16.2 °C 1026.1 hPa NE 9.2 km/h 14.8 km/h 67% 0.0 mm
12:54 22.8 °C 16.2 °C 1026.1 hPa NE 8.7 km/h 17.2 km/h 66.6% 0.0 mm
12:59 22.8 °C 16.2 °C 1026.0 hPa NE 8.5 km/h 12.2 km/h 66.3% 0.0 mm
13:04 23.1 °C 16.1 °C 1026.0 hPa ENE 8.4 km/h 20.4 km/h 64.8% 0.0 mm
13:09 23.2 °C 15.9 °C 1026.0 hPa ENE 8.8 km/h 16.7 km/h 63.7% 0.0 mm
13:14 23.2 °C 15.8 °C 1025.8 hPa NNE 9.5 km/h 22.2 km/h 63.1% 0.0 mm
13:19 23.3 °C 15.8 °C 1025.8 hPa NE 10.2 km/h 20.4 km/h 62.8% 0.0 mm
13:24 23.4 °C 15.6 °C 1025.8 hPa ENE 11.1 km/h 20.4 km/h 61.6% 0.0 mm
13:29 23.7 °C 15.7 °C 1025.4 hPa Este 10.6 km/h 18.5 km/h 61% 0.0 mm
13:34 23.9 °C 15.9 °C 1025.4 hPa ENE 10 km/h 16.7 km/h 61.1% 0.0 mm
13:39 23.8 °C 15.8 °C 1025.4 hPa NE 10.1 km/h 22.5 km/h 61% 0.0 mm
13:44 23.6 °C 14.9 °C 1025.4 hPa NE 10.3 km/h 27.8 km/h 58.3% 0.0 mm
13:49 23.7 °C 15 °C 1025.4 hPa NE 11.9 km/h 22.5 km/h 58.2% 0.0 mm
13:54 23.7 °C 15 °C 1025.4 hPa NE 14 km/h 24.1 km/h 58.1% 0.0 mm
13:59 23.8 °C 15 °C 1025.2 hPa NE 13.6 km/h 20.9 km/h 57.6% 0.0 mm
14:04 24 °C 14.7 °C 1025.2 hPa NNE 13 km/h 20.9 km/h 56.1% 0.0 mm
14:09 24.1 °C 15.3 °C 1025.2 hPa NNE 12.7 km/h 23.7 km/h 57.8% 0.0 mm
14:14 24 °C 15.2 °C 1025.0 hPa NNE 12.2 km/h 25.9 km/h 57.9% 0.0 mm
14:19 23.9 °C 15 °C 1025.0 hPa NE 13.9 km/h 25.9 km/h 57.3% 0.0 mm
14:24 24 °C 14.8 °C 1025.0 hPa NNE 16.1 km/h 25.9 km/h 56.2% 0.0 mm
14:29 24 °C 14.8 °C 1024.7 hPa NNE 15.9 km/h 27.8 km/h 56.3% 0.0 mm
14:34 23.9 °C 14.9 °C 1024.7 hPa NE 15.6 km/h 27.8 km/h 56.9% 0.0 mm
14:39 24.2 °C 14.9 °C 1024.7 hPa NE 15.8 km/h 25.9 km/h 56.3% 0.0 mm
14:44 24.2 °C 14.5 °C 1024.7 hPa NE 16.1 km/h 24.1 km/h 54.6% 0.0 mm
14:49 24.3 °C 14.3 °C 1024.7 hPa NE 15.6 km/h 20.4 km/h 54% 0.0 mm
14:54 24.3 °C 14.4 °C 1024.7 hPa NE 14.8 km/h 29.1 km/h 53.8% 0.0 mm
14:59 24.1 °C 14.9 °C 1024.6 hPa NE 15.2 km/h 30.6 km/h 56.2% 0.0 mm
15:04 24 °C 14.9 °C 1024.6 hPa NE 15.6 km/h 28.2 km/h 56.6% 0.0 mm
15:09 24.1 °C 14.9 °C 1024.6 hPa NE 15.3 km/h 22.2 km/h 56.6% 0.0 mm
15:14 24.3 °C 14.8 °C 1024.4 hPa ENE 14.8 km/h 28.2 km/h 55.5% 0.0 mm
15:19 24.3 °C 14.6 °C 1024.4 hPa ENE 13.7 km/h 19 km/h 54.8% 0.0 mm
15:24 24.4 °C 14.4 °C 1024.4 hPa ENE 12.2 km/h 25.9 km/h 53.8% 0.0 mm
15:29 24.3 °C 14.3 °C 1024.3 hPa NE 11.8 km/h 20.9 km/h 53.4% 0.0 mm
15:34 24.3 °C 14.1 °C 1024.3 hPa ENE 11.1 km/h 22.5 km/h 53% 0.0 mm
15:39 24.3 °C 14.1 °C 1024.3 hPa ENE 11.5 km/h 25.9 km/h 52.9% 0.0 mm
15:44 24.3 °C 14.3 °C 1024.2 hPa NE 11.9 km/h 27.8 km/h 53.9% 0.0 mm
15:49 24.2 °C 14.4 °C 1024.2 hPa ENE 12.8 km/h 25.9 km/h 54.2% 0.0 mm
15:54 24.2 °C 14 °C 1024.2 hPa NE 14 km/h 24.1 km/h 53% 0.0 mm
15:55 24.1 °C 13.8 °C 1024.0 hPa NE 14 km/h 20.1 km/h 52.4% 0.0 mm
16:04 24.2 °C 13.7 °C 1024.0 hPa NE 13.7 km/h 27.8 km/h 52% 0.0 mm
16:09 24.1 °C 13.6 °C 1024.0 hPa NE 13.7 km/h 27.8 km/h 52% 0.0 mm
16:14 24 °C 13.5 °C 1023.9 hPa NE 13.7 km/h 25.9 km/h 52% 0.0 mm
16:19 24.1 °C 13.7 °C 1023.9 hPa NE 13.4 km/h 22.2 km/h 52.3% 0.0 mm
16:24 24.2 °C 14.1 °C 1023.9 hPa NE 13 km/h 24.1 km/h 53.4% 0.0 mm
16:29 24.1 °C 14.1 °C 1023.8 hPa ENE 12.7 km/h 17.2 km/h 53.6% 0.0 mm
16:34 24.1 °C 14 °C 1023.8 hPa NE 12.2 km/h 28.2 km/h 53.2% 0.0 mm
16:39 23.9 °C 14 °C 1023.8 hPa NE 12.9 km/h 24.1 km/h 54% 0.0 mm
16:44 23.7 °C 13.9 °C 1023.7 hPa NE 14 km/h 22.5 km/h 54.3% 0.0 mm
16:49 23.7 °C 13.6 °C 1023.7 hPa NE 14.3 km/h 25.9 km/h 53.4% 0.0 mm
16:54 23.7 °C 13.7 °C 1023.8 hPa NE 14.8 km/h 25.9 km/h 53.5% 0.0 mm
16:59 23.7 °C 14.1 °C 1023.8 hPa NE 14.3 km/h 22.2 km/h 54.9% 0.0 mm
17:04 23.7 °C 14.1 °C 1023.8 hPa NE 13.7 km/h 22.2 km/h 55.1% 0.0 mm
17:09 23.7 °C 14.1 °C 1023.8 hPa NE 12.9 km/h 24.1 km/h 55% 0.0 mm
17:14 23.6 °C 14 °C 1023.8 hPa NE 11.9 km/h 24.5 km/h 55% 0.0 mm
17:19 23.4 °C 14.1 °C 1023.8 hPa NE 13.8 km/h 24.1 km/h 55.8% 0.0 mm
17:24 23.5 °C 14.1 °C 1023.8 hPa NE 16.4 km/h 24.5 km/h 55.4% 0.0 mm
17:29 23.4 °C 13.9 °C 1023.8 hPa NE 15.3 km/h 24.5 km/h 55% 0.0 mm
17:34 23.4 °C 13.9 °C 1023.8 hPa NE 13.7 km/h 26.2 km/h 55% 0.0 mm
17:39 23.4 °C 14.3 °C 1023.8 hPa NE 13.4 km/h 22.2 km/h 56.6% 0.0 mm
17:44 23.3 °C 14.3 °C 1023.7 hPa NNE 13 km/h 25.9 km/h 57.1% 0.0 mm
17:49 23.2 °C 14.2 °C 1023.7 hPa NE 13 km/h 18.5 km/h 57% 0.0 mm
17:54 23.3 °C 14.3 °C 1023.7 hPa NE 13 km/h 19 km/h 57.1% 0.0 mm
17:59 23.3 °C 14.3 °C 1023.6 hPa NE 11.8 km/h 19 km/h 57.1% 0.0 mm
18:04 23.2 °C 14.2 °C 1023.6 hPa NE 10.3 km/h 16.7 km/h 57% 0.0 mm
18:09 23.2 °C 14.4 °C 1023.7 hPa NE 10.3 km/h 20.1 km/h 57.6% 0.0 mm
18:14 23.1 °C 14.5 °C 1023.7 hPa NE 10.3 km/h 20.4 km/h 58.4% 0.0 mm
18:19 23 °C 14.5 °C 1023.7 hPa NE 11.1 km/h 24.5 km/h 59% 0.0 mm
18:24 22.9 °C 14.3 °C 1023.7 hPa NE 12.2 km/h 22.2 km/h 58.3% 0.0 mm
18:29 22.8 °C 14.3 °C 1023.7 hPa NE 12.2 km/h 17.2 km/h 58.7% 0.0 mm
18:34 22.8 °C 14.7 °C 1023.7 hPa NE 12.2 km/h 22.5 km/h 60.4% 0.0 mm
18:39 22.7 °C 14.9 °C 1023.8 hPa NE 12.2 km/h 22.5 km/h 61.5% 0.0 mm
18:44 22.6 °C 14.9 °C 1023.8 hPa NE 12.2 km/h 18 km/h 62% 0.0 mm
18:49 22.5 °C 14.8 °C 1023.8 hPa NE 11.3 km/h 19 km/h 62% 0.0 mm
18:54 22.4 °C 14.9 °C 1023.8 hPa NE 10 km/h 18.5 km/h 62.8% 0.0 mm
18:59 22.3 °C 15.1 °C 1023.8 hPa NE 10.9 km/h 20.4 km/h 63.8% 0.0 mm
19:04 22.2 °C 15.2 °C 1023.8 hPa NE 11.9 km/h 16.7 km/h 64.8% 0.0 mm
19:09 22.1 °C 15.4 °C 1023.9 hPa NE 11.1 km/h 14.8 km/h 65.7% 0.0 mm
19:14 22 °C 15.4 °C 1023.9 hPa NE 10 km/h 16.7 km/h 66.3% 0.0 mm
19:19 21.8 °C 15.4 °C 1023.9 hPa NE 9 km/h 13 km/h 67% 0.0 mm
19:24 21.7 °C 15.3 °C 1024.0 hPa NE 7.6 km/h 17.2 km/h 67% 0.0 mm
19:29 21.6 °C 15.3 °C 1024.0 hPa NE 8.6 km/h 16.7 km/h 67.5% 0.0 mm
19:34 21.4 °C 15.3 °C 1024.0 hPa NE 10 km/h 13 km/h 68% 0.0 mm
19:39 21.3 °C 15.3 °C 1024.0 hPa NE 9 km/h 17.2 km/h 68.5% 0.0 mm
19:44 21.3 °C 15.3 °C 1024.0 hPa NE 7.6 km/h 15.6 km/h 69% 0.0 mm
19:49 21.2 °C 15.4 °C 1024.0 hPa NE 8.1 km/h 15.6 km/h 69.7% 0.0 mm
19:54 21.1 °C 15.4 °C 1024.1 hPa NE 8.7 km/h 16.7 km/h 70% 0.0 mm
19:59 20.9 °C 15.3 °C 1024.1 hPa NE 8.7 km/h 13 km/h 70.2% 0.0 mm
20:04 20.9 °C 15.4 °C 1024.1 hPa NE 8.7 km/h 11.1 km/h 71% 0.0 mm
20:09 20.8 °C 15.3 °C 1024.2 hPa NE 7.8 km/h 13 km/h 71% 0.0 mm
20:14 20.7 °C 15.3 °C 1024.2 hPa NE 6.4 km/h 11.9 km/h 71% 0.0 mm
20:19 20.6 °C 15.4 °C 1024.2 hPa NE 6.6 km/h 11.9 km/h 71.8% 0.0 mm
20:24 20.6 °C 15.3 °C 1024.3 hPa NE 6.9 km/h 13 km/h 72% 0.0 mm
20:29 20.4 °C 15.2 °C 1024.3 hPa NE 7.5 km/h 13 km/h 72% 0.0 mm
20:34 20.4 °C 15.2 °C 1024.3 hPa NE 8.4 km/h 13 km/h 72% 0.0 mm
20:39 20.4 °C 15.2 °C 1024.5 hPa NE 8 km/h 11.1 km/h 72.4% 0.0 mm
20:44 20.4 °C 15.4 °C 1024.5 hPa NE 7.6 km/h 13 km/h 73% 0.0 mm
20:49 20.4 °C 15.4 °C 1024.5 hPa NE 7.9 km/h 13 km/h 73% 0.0 mm
20:54 20.4 °C 15.4 °C 1024.5 hPa NE 8.4 km/h 9.3 km/h 73% 0.0 mm
20:59 20.3 °C 15.3 °C 1024.5 hPa NE 7.3 km/h 7.6 km/h 73% 0.0 mm
21:04 20.3 °C 15.3 °C 1024.5 hPa ENE 5.8 km/h 9.5 km/h 73% 0.0 mm
21:09 20.3 °C 15.4 °C 1024.6 hPa NE 5.4 km/h 9.3 km/h 73.8% 0.0 mm
21:14 20.2 °C 15.4 °C 1024.6 hPa ENE 5 km/h 10 km/h 74% 0.0 mm
21:19 20.2 °C 15.4 °C 1024.6 hPa ENE 5 km/h 9.3 km/h 74% 0.0 mm
21:24 20.1 °C 15.3 °C 1024.6 hPa NE 5 km/h 7.6 km/h 74% 0.0 mm
21:29 20.1 °C 15.3 °C 1024.6 hPa NNE 4.5 km/h 5.6 km/h 74% 0.0 mm
21:34 19.9 °C 15.3 °C 1024.6 hPa NNO 3.9 km/h 7.4 km/h 74.5% 0.0 mm
21:39 19.8 °C 15.2 °C 1024.8 hPa NNO 3.9 km/h 5.8 km/h 75% 0.0 mm
21:44 19.7 °C 15.3 °C 1024.8 hPa NNO 3.9 km/h 5.6 km/h 75.8% 0.0 mm
21:49 19.5 °C 15.2 °C 1024.8 hPa NNO 3.4 km/h 3.9 km/h 76.5% 0.0 mm
21:54 19.4 °C 15.3 °C 1024.8 hPa North 2.9 km/h 5.8 km/h 77% 0.0 mm
21:59 19.4 °C 15.3 °C 1024.7 hPa ENE 3 km/h 5.8 km/h 77% 0.0 mm
22:04 19.4 °C 15.3 °C 1024.7 hPa Este 3.2 km/h 7.4 km/h 77% 0.0 mm
22:09 19.4 °C 15.3 °C 1024.7 hPa NE 3.5 km/h 7.4 km/h 77% 0.0 mm
22:14 19.4 °C 15.3 °C 1024.6 hPa ENE 3.9 km/h 7.4 km/h 77% 0.0 mm
22:19 19.4 °C 15.3 °C 1024.6 hPa ENE 3.6 km/h 5.8 km/h 77% 0.0 mm
22:24 19.4 °C 15.3 °C 1024.7 hPa ENE 3.2 km/h 5.8 km/h 77% 0.0 mm
22:29 19.3 °C 15.2 °C 1024.7 hPa ENE 3.2 km/h 5.6 km/h 77% 0.0 mm
22:34 19.3 °C 15.2 °C 1024.7 hPa ENE 3.2 km/h 3.7 km/h 77.6% 0.0 mm
22:39 19.2 °C 15.3 °C 1024.8 hPa ENE 1.9 km/h   78% 0.0 mm
22:44 19.1 °C 15.2 °C 1024.8 hPa Calm     78% 0.0 mm
22:49 19.1 °C 15.1 °C 1024.8 hPa Calm   7.4 km/h 78% 0.0 mm
22:54 18.9 °C 15.1 °C 1024.9 hPa Calm   3.7 km/h 78.4% 0.0 mm
22:59 18.9 °C 15.2 °C 1024.9 hPa Calm   3.7 km/h 79% 0.0 mm
23:04 18.8 °C 15.1 °C 1024.9 hPa Calm   7.4 km/h 79% 0.0 mm
23:09 18.8 °C 15.1 °C 1024.9 hPa ONO 1.4 km/h 7.4 km/h 79% 0.0 mm
23:14 18.7 °C 15.2 °C 1024.8 hPa ONO 3.2 km/h 5.6 km/h 79.9% 0.0 mm
23:19 18.7 °C 15.2 °C 1024.8 hPa ONO 3.2 km/h 5.8 km/h 80% 0.0 mm
23:24 18.6 °C 15.1 °C 1024.9 hPa ONO 3.2 km/h 3.7 km/h 80% 0.0 mm
23:29 18.6 °C 15.1 °C 1024.9 hPa ONO 1.9 km/h 5.8 km/h 80% 0.0 mm
23:34 18.5 °C 15.1 °C 1024.9 hPa Calm   3.9 km/h 80.7% 0.0 mm
23:39 18.4 °C 15.1 °C 1025.0 hPa ONO 1 km/h 5 km/h 81% 0.0 mm
23:44 18.4 °C 15 °C 1025.0 hPa ONO 2.3 km/h 7.4 km/h 81% 0.0 mm
23:49 18.3 °C 15 °C 1025.0 hPa ONO 2.7 km/h 5.8 km/h 81% 0.0 mm
23:54 18.2 °C 14.9 °C 1025.0 hPa ONO 3.2 km/h 5.6 km/h 81% 0.0 mm
23:59 18.2 °C 14.9 °C 1025.0 hPa ONO 2.8 km/h 4.7 km/h 81% 0.0 mm
Murcia-Puente Tocinos, Espa?a
Compliments of Weather Underground - 3 mb

La estación de MeteoMurcia.com, publica sus datos en los siguientes proyectos:

Weather Underground PWS IMURCIAP2 Meteoclimatic www.awekas.at

W3Counter
Web Analytics